KELZ/ELZ METAR and TAF weather

Enter ICAO airport designator
Station Type Date Time Source
KELZ METAR 2020/01/22 20:56 UTC NOAA

KELZ 222056Z AUTO 22005KT 10SM CLR 00/M14 A3028 RMK AO2 SLP287 T00001139 55001


Station Type Date Time Source
KELZ Decoded METAR 2020/01/22 20:56 UTC NOAA

WELLSVILLE MUNICIPAL AIRPORT, NY, United States (KELZ) 42-06N 077-60W 646M
Jan 22, 2020 - 03:56 PM EST / 2020.01.22 2056 UTC
Wind: from the SW (220 degrees) at 6 MPH (5 KT):0
Visibility: 10 mile(s):0
Sky conditions: clear
Temperature: 32.0 F (0.0 C)
Windchill: 26 F (-3 C):1
Dew Point: 7.0 F (-13.9 C)
Relative Humidity: 34%
Pressure (altimeter): 30.28 in. Hg (1025 hPa)
Pressure tendency: 0.00 inches (0.1 hPa) lower than three hours ago
ob: KELZ 222056Z AUTO 22005KT 10SM CLR 00/M14 A3028 RMK AO2 SLP287 T00001139 55001
cycle: 21

Station Type Date Time Source
KELZ TAF UTC NOAA

Error!

Example: see airport list